Time;durP1;ratioP1;P1;durP2;ratioP2;P2;SDS_P1;SDS_P2;PMS_P1;PMS_P2;Temp;Humidity;BMP_temperature;BMP_pressure;BME280_temperature;BME280_humidity;BME280_pressure;Samples;Min_cycle;Max_cycle;Signal;HPM_P1;HPM_P2
2023/07/13 00:00:20;;;;;;;;;;;;;;;;;;5051226;28;20361;-76
2023/07/13 00:02:46;;;;;;;;;;;;;;;;;;5069064;28;19920;-75
2023/07/13 00:05:12;;;;;;;;;;;;;;;;;;5063541;28;19954;-77
2023/07/13 00:07:38;;;;;;;;;;;;;;;;;;5051322;28;19927;-76
2023/07/13 00:10:04;;;;;;;;;;;;;;;;;;5061920;28;19920;-77
2023/07/13 00:12:30;;;;;;;;;;;;;;;;;;5070521;28;19982;-76
2023/07/13 00:14:56;;;;;;;;;;;;;;;;;;5070246;28;19924;-81
2023/07/13 00:17:21;;;;;;;;;;;;;;;;;;5059646;28;20361;-76
2023/07/13 00:19:47;;;;;;;;;;;;;;;;;;5050187;28;20376;-78
2023/07/13 00:22:13;;;;;;;;;;;;;;;;;;5054149;28;20827;-76
2023/07/13 00:24:41;;;;;;;;;;;;;;;;;;5060822;28;20007;-76
2023/07/13 00:27:07;;;;;;;;;;;;;;;;;;5049115;28;20377;-76
2023/07/13 00:29:33;;;;;;;;;;;;;;;;;;5064660;28;19925;-75
2023/07/13 00:31:59;;;;;;;;;;;;;;;;;;5070363;28;19977;-75
2023/07/13 00:34:26;;;;;;;;;;;;;;;;;;5069808;28;19924;-75
2023/07/13 00:36:52;;;;;;;;;;;;;;;;;;5070907;28;20388;-77
2023/07/13 00:39:18;;;;;;;;;;;;;;;;;;5070316;28;19920;-75
2023/07/13 00:41:44;;;;;;;;;;;;;;;;;;5070505;28;19920;-76
2023/07/13 00:44:10;;;;;;;;;;;;;;;;;;5070011;28;20003;-75
2023/07/13 00:46:36;;;;;;;;;;;;;;;;;;5068448;28;20388;-76
2023/07/13 00:49:02;;;;;;;;;;;;;;;;;;5052322;28;19920;-75
2023/07/13 00:51:28;;;;;;;;;;;;;;;;;;5059130;28;19921;-78
2023/07/13 00:53:54;;;;;;;;;;;;;;;;;;5052946;28;19924;-76
2023/07/13 00:56:20;;;;;;;;;;;;;;;;;;5069353;28;19927;-76
2023/07/13 00:58:46;;;;;;;;;;;;;;;;;;5069975;28;20379;-76
2023/07/13 01:01:12;;;;;;;;;;;;;;;;;;5070066;28;19920;-77
2023/07/13 01:03:40;;;;;;;;;;;;;;;;;;5049710;28;19978;-76
2023/07/13 01:06:06;;;;;;;;;;;;;;;;;;5049795;28;19951;-76
2023/07/13 01:08:32;;;;;;;;;;;;;;;;;;5050381;28;19925;-75
2023/07/13 01:10:58;;;;;;;;;;;;;;;;;;5050068;28;19944;-76
2023/07/13 01:13:24;;;;;;;;;;;;;;;;;;5049078;28;20367;-75
2023/07/13 01:15:51;;;;;;;;;;;;;;;;;;5050027;28;19924;-76
2023/07/13 01:18:18;;;;;;;;;;;;;;;;;;5050894;28;19920;-76
2023/07/13 01:20:44;;;;;;;;;;;;;;;;;;5050244;28;19920;-75
2023/07/13 01:23:10;;;;;;;;;;;;;;;;;;5049813;28;19928;-75
2023/07/13 01:25:36;;;;;;;;;;;;;;;;;;5049716;28;19920;-75
2023/07/13 01:28:02;;;;;;;;;;;;;;;;;;5050102;28;19921;-82
2023/07/13 01:30:28;;;;;;;;;;;;;;;;;;5052654;28;19920;-77
2023/07/13 01:32:53;;;;;;;;;;;;;;;;;;5069068;28;19920;-75
2023/07/13 01:35:19;;;;;;;;;;;;;;;;;;5052797;28;19931;-79
2023/07/13 01:37:45;;;;;;;;;;;;;;;;;;5068452;28;19971;-75
2023/07/13 01:40:12;;;;;;;;;;;;;;;;;;5049466;28;19921;-75
2023/07/13 01:42:38;;;;;;;;;;;;;;;;;;5043277;28;19927;-75
2023/07/13 01:45:03;;;;;;;;;;;;;;;;;;5049702;28;20003;-81
2023/07/13 01:47:30;;;;;;;;;;;;;;;;;;5050092;28;19927;-78
2023/07/13 01:49:56;;;;;;;;;;;;;;;;;;5049053;28;19924;-75
2023/07/13 01:52:22;;;;;;;;;;;;;;;;;;5049100;28;19925;-75
2023/07/13 01:54:48;;;;;;;;;;;;;;;;;;5049070;28;19971;-75
2023/07/13 01:57:14;;;;;;;;;;;;;;;;;;5049127;28;19936;-76
2023/07/13 01:59:40;;;;;;;;;;;;;;;;;;5051014;28;19931;-75
2023/07/13 02:02:06;;;;;;;;;;;;;;;;;;5067547;28;19924;-81
2023/07/13 02:04:32;;;;;;;;;;;;;;;;;;5066173;28;19927;-75
2023/07/13 02:06:58;;;;;;;;;;;;;;;;;;5053628;28;19932;-76
2023/07/13 02:09:24;;;;;;;;;;;;;;;;;;5056663;28;19989;-75
2023/07/13 02:11:50;;;;;;;;;;;;;;;;;;5073108;28;19924;-76
2023/07/13 02:14:16;;;;;;;;;;;;;;;;;;5072696;28;20372;-75
2023/07/13 02:16:42;;;;;;;;;;;;;;;;;;5073336;28;19928;-76
2023/07/13 02:19:08;;;;;;;;;;;;;;;;;;5072056;28;20053;-76
2023/07/13 02:21:34;;;;;;;;;;;;;;;;;;5056753;28;20320;-76
2023/07/13 02:24:00;;;;;;;;;;;;;;;;;;5072072;28;19981;-78
2023/07/13 02:26:26;;;;;;;;;;;;;;;;;;5071601;28;20377;-76
2023/07/13 02:28:52;;;;;;;;;;;;;;;;;;5056345;28;20273;-75
2023/07/13 02:31:18;;;;;;;;;;;;;;;;;;5071571;28;19931;-75
2023/07/13 02:33:44;;;;;;;;;;;;;;;;;;5052207;28;20456;-75
2023/07/13 02:36:10;;;;;;;;;;;;;;;;;;5052613;28;20365;-75
2023/07/13 02:38:36;;;;;;;;;;;;;;;;;;5072703;28;19968;-75
2023/07/13 02:41:02;;;;;;;;;;;;;;;;;;5072687;28;19974;-75
2023/07/13 02:43:28;;;;;;;;;;;;;;;;;;5072356;28;19921;-76
2023/07/13 02:45:54;;;;;;;;;;;;;;;;;;5073005;28;20027;-75
2023/07/13 02:48:20;;;;;;;;;;;;;;;;;;5071705;28;19925;-75
2023/07/13 02:50:46;;;;;;;;;;;;;;;;;;5072914;28;19924;-75
2023/07/13 02:53:12;;;;;;;;;;;;;;;;;;5072035;28;20011;-76
2023/07/13 02:55:38;;;;;;;;;;;;;;;;;;5072449;28;20377;-75
2023/07/13 02:58:05;;;;;;;;;;;;;;;;;;5071511;28;19925;-76
2023/07/13 03:00:31;;;;;;;;;;;;;;;;;;5072255;28;19964;-75
2023/07/13 03:02:57;;;;;;;;;;;;;;;;;;5055120;28;19980;-75
2023/07/13 03:05:23;;;;;;;;;;;;;;;;;;5071493;28;19926;-75
2023/07/13 03:07:49;;;;;;;;;;;;;;;;;;5072629;28;20385;-76
2023/07/13 03:10:16;;;;;;;;;;;;;;;;;;5058501;28;19990;-77
2023/07/13 03:12:41;;;;;;;;;;;;;;;;;;5051724;28;19921;-75
2023/07/13 03:15:07;;;;;;;;;;;;;;;;;;5052284;28;20031;-75
2023/07/13 03:17:33;;;;;;;;;;;;;;;;;;5070646;28;19924;-75
2023/07/13 03:19:59;;;;;;;;;;;;;;;;;;5071490;28;19928;-75
2023/07/13 03:22:25;;;;;;;;;;;;;;;;;;5055075;28;20019;-76
2023/07/13 03:24:51;;;;;;;;;;;;;;;;;;5054931;28;20629;-75
2023/07/13 03:27:17;;;;;;;;;;;;;;;;;;5070879;28;19928;-76
2023/07/13 03:29:43;;;;;;;;;;;;;;;;;;5071501;28;19959;-76
2023/07/13 03:32:09;;;;;;;;;;;;;;;;;;5052244;28;19921;-76
2023/07/13 03:34:35;;;;;;;;;;;;;;;;;;5055921;28;20018;-76
2023/07/13 03:37:01;;;;;;;;;;;;;;;;;;5071893;28;20405;-75
2023/07/13 03:39:27;;;;;;;;;;;;;;;;;;5054411;28;19927;-76
2023/07/13 03:41:53;;;;;;;;;;;;;;;;;;5071289;28;20007;-75
2023/07/13 03:44:19;;;;;;;;;;;;;;;;;;5072172;28;19921;-76
2023/07/13 03:46:45;;;;;;;;;;;;;;;;;;5070166;28;19928;-76
2023/07/13 03:49:11;;;;;;;;;;;;;;;;;;5050849;28;20044;-76
2023/07/13 03:51:37;;;;;;;;;;;;;;;;;;5050553;28;20018;-75
2023/07/13 03:54:03;;;;;;;;;;;;;;;;;;5051774;28;19927;-75
2023/07/13 03:56:30;;;;;;;;;;;;;;;;;;5050682;28;19990;-75
2023/07/13 03:58:56;;;;;;;;;;;;;;;;;;5064256;28;20383;-76
2023/07/13 04:01:22;;;;;;;;;;;;;;;;;;5054587;28;20015;-76
2023/07/13 04:03:48;;;;;;;;;;;;;;;;;;5070596;28;20073;-75
2023/07/13 04:06:15;;;;;;;;;;;;;;;;;;5070851;28;19931;-76
2023/07/13 04:08:41;;;;;;;;;;;;;;;;;;5068024;28;19920;-75
2023/07/13 04:11:07;;;;;;;;;;;;;;;;;;5070160;28;19928;-75
2023/07/13 04:13:33;;;;;;;;;;;;;;;;;;5070287;28;19920;-75
2023/07/13 04:15:58;;;;;;;;;;;;;;;;;;5071256;28;19920;-75
2023/07/13 04:18:24;;;;;;;;;;;;;;;;;;5070887;28;19931;-76
2023/07/13 04:20:50;;;;;;;;;;;;;;;;;;5068556;28;19924;-75
2023/07/13 04:23:16;;;;;;;;;;;;;;;;;;5050503;28;19955;-76
2023/07/13 04:25:42;;;;;;;;;;;;;;;;;;5050396;28;19925;-75
2023/07/13 04:28:08;;;;;;;;;;;;;;;;;;5055767;28;20411;-75
2023/07/13 04:30:34;;;;;;;;;;;;;;;;;;5070632;28;20337;-75
2023/07/13 04:33:00;;;;;;;;;;;;;;;;;;5059533;28;19928;-76
2023/07/13 04:35:27;;;;;;;;;;;;;;;;;;5070196;28;19979;-75
2023/07/13 04:37:53;;;;;;;;;;;;;;;;;;5054279;28;19927;-76
2023/07/13 04:40:19;;;;;;;;;;;;;;;;;;5070950;28;19920;-78
2023/07/13 04:42:45;;;;;;;;;;;;;;;;;;5069598;28;19924;-75
2023/07/13 04:45:10;;;;;;;;;;;;;;;;;;5070631;28;19920;-75
2023/07/13 04:47:36;;;;;;;;;;;;;;;;;;5070045;28;20348;-80
2023/07/13 04:50:02;;;;;;;;;;;;;;;;;;5053641;28;19927;-75
2023/07/13 04:52:28;;;;;;;;;;;;;;;;;;5055402;28;19974;-75
2023/07/13 04:54:54;;;;;;;;;;;;;;;;;;5060487;28;19921;-75
2023/07/13 04:57:20;;;;;;;;;;;;;;;;;;5070164;28;19927;-78
2023/07/13 04:59:46;;;;;;;;;;;;;;;;;;5069956;28;19921;-76
2023/07/13 05:02:12;;;;;;;;;;;;;;;;;;5070556;28;19971;-75
2023/07/13 05:04:38;;;;;;;;;;;;;;;;;;5052526;28;19943;-75
2023/07/13 05:07:04;;;;;;;;;;;;;;;;;;5050473;28;19925;-75
2023/07/13 05:09:30;;;;;;;;;;;;;;;;;;5033340;28;19927;-76
2023/07/13 05:11:56;;;;;;;;;;;;;;;;;;5049812;28;19931;-74
2023/07/13 05:14:22;;;;;;;;;;;;;;;;;;5049808;28;19928;-75
2023/07/13 05:16:48;;;;;;;;;;;;;;;;;;5046394;28;19925;-76
2023/07/13 05:19:14;;;;;;;;;;;;;;;;;;5069177;28;20023;-75
2023/07/13 05:21:41;;;;;;;;;;;;;;;;;;5051300;28;20008;-75
2023/07/13 05:24:06;;;;;;;;;;;;;;;;;;5070424;28;20288;-76
2023/07/13 05:26:32;;;;;;;;;;;;;;;;;;5052296;28;20007;-76
2023/07/13 05:28:58;;;;;;;;;;;;;;;;;;5070089;28;20325;-75
2023/07/13 05:31:24;;;;;;;;;;;;;;;;;;5069838;28;19927;-81
2023/07/13 05:33:50;;;;;;;;;;;;;;;;;;5070250;28;19967;-76
2023/07/13 05:36:16;;;;;;;;;;;;;;;;;;5069942;28;21768;-76
2023/07/13 05:38:42;;;;;;;;;;;;;;;;;;5053686;28;19921;-75
2023/07/13 05:41:08;;;;;;;;;;;;;;;;;;5056169;28;19928;-75
2023/07/13 05:43:34;;;;;;;;;;;;;;;;;;5053363;28;19982;-75
2023/07/13 05:46:00;;;;;;;;;;;;;;;;;;5053954;28;19921;-76
2023/07/13 05:48:26;;;;;;;;;;;;;;;;;;5052944;28;19921;-82
2023/07/13 05:50:52;;;;;;;;;;;;;;;;;;5053843;28;19928;-75
2023/07/13 05:53:18;;;;;;;;;;;;;;;;;;5053666;28;19921;-76
2023/07/13 05:55:44;;;;;;;;;;;;;;;;;;5053423;28;20039;-76
2023/07/13 05:58:10;;;;;;;;;;;;;;;;;;5056328;28;20361;-76
2023/07/13 06:00:36;;;;;;;;;;;;;;;;;;5073406;28;19928;-77
2023/07/13 06:03:02;;;;;;;;;;;;;;;;;;5062496;28;19921;-76
2023/07/13 06:05:28;;;;;;;;;;;;;;;;;;5053274;28;19921;-81
2023/07/13 06:07:57;;;;;;;;;;;;;;;;;;5053389;28;20282;-76
2023/07/13 06:10:23;;;;;;;;;;;;;;;;;;5070467;28;19920;-77
2023/07/13 06:12:49;;;;;;;;;;;;;;;;;;5072306;28;20349;-76
2023/07/13 06:15:15;;;;;;;;;;;;;;;;;;5056651;28;19924;-76
2023/07/13 06:17:41;;;;;;;;;;;;;;;;;;5069329;28;20003;-77
2023/07/13 06:20:07;;;;;;;;;;;;;;;;;;5056824;28;20010;-76
2023/07/13 06:22:33;;;;;;;;;;;;;;;;;;5055713;28;19920;-76
2023/07/13 06:24:59;;;;;;;;;;;;;;;;;;5064089;28;19950;-77
2023/07/13 06:27:25;;;;;;;;;;;;;;;;;;5072235;28;19975;-76
2023/07/13 06:29:51;;;;;;;;;;;;;;;;;;5072639;28;19980;-76
2023/07/13 06:32:17;;;;;;;;;;;;;;;;;;5056367;28;20349;-76
2023/07/13 06:34:43;;;;;;;;;;;;;;;;;;5071912;28;20346;-77
2023/07/13 06:37:09;;;;;;;;;;;;;;;;;;5072430;28;20430;-76
2023/07/13 06:39:35;;;;;;;;;;;;;;;;;;5064575;28;19947;-76
2023/07/13 06:42:01;;;;;;;;;;;;;;;;;;5072703;28;19921;-77
2023/07/13 06:44:27;;;;;;;;;;;;;;;;;;5071994;28;19920;-76
2023/07/13 06:46:53;;;;;;;;;;;;;;;;;;5055227;28;19974;-75
2023/07/13 06:49:19;;;;;;;;;;;;;;;;;;5071299;28;19956;-71
2023/07/13 06:51:45;;;;;;;;;;;;;;;;;;5062278;28;19931;-72
2023/07/13 06:54:11;;;;;;;;;;;;;;;;;;5062154;28;19983;-70
2023/07/13 06:56:37;;;;;;;;;;;;;;;;;;5065051;28;19960;-84
2023/07/13 06:59:03;;;;;;;;;;;;;;;;;;5067533;28;19920;-78
2023/07/13 07:01:29;;;;;;;;;;;;;;;;;;5069283;28;19921;-76
2023/07/13 07:03:55;;;;;;;;;;;;;;;;;;5054026;28;19924;-75
2023/07/13 07:06:23;;;;;;;;;;;;;;;;;;5072385;28;20129;-76
2023/07/13 07:08:49;;;;;;;;;;;;;;;;;;5071531;28;19920;-78
2023/07/13 07:11:15;;;;;;;;;;;;;;;;;;5071673;28;20404;-79
2023/07/13 07:13:41;;;;;;;;;;;;;;;;;;5054609;28;19921;-79
2023/07/13 07:16:08;;;;;;;;;;;;;;;;;;5072417;28;19920;-78
2023/07/13 07:18:34;;;;;;;;;;;;;;;;;;5070871;28;19927;-82
2023/07/13 07:21:00;;;;;;;;;;;;;;;;;;5055436;28;19920;-79
2023/07/13 07:23:26;;;;;;;;;;;;;;;;;;5065523;28;19921;-79
2023/07/13 07:25:52;;;;;;;;;;;;;;;;;;5051218;28;19960;-80
2023/07/13 07:28:18;;;;;;;;;;;;;;;;;;5066547;28;19971;-79
2023/07/13 07:30:44;;;;;;;;;;;;;;;;;;5071621;28;19920;-79
2023/07/13 07:33:10;;;;;;;;;;;;;;;;;;5054461;28;20010;-79
2023/07/13 07:35:36;;;;;;;;;;;;;;;;;;5051557;28;19940;-82
2023/07/13 07:38:01;;;;;;;;;;;;;;;;;;5051720;28;19972;-79
2023/07/13 07:40:27;;;;;;;;;;;;;;;;;;5070529;28;19920;-79
2023/07/13 07:42:53;;;;;;;;;;;;;;;;;;5069157;28;19920;-79
2023/07/13 07:45:19;;;;;;;;;;;;;;;;;;5068677;28;19920;-79
2023/07/13 07:47:45;;;;;;;;;;;;;;;;;;5050681;28;19928;-79
2023/07/13 07:50:11;;;;;;;;;;;;;;;;;;5071654;28;20301;-76
2023/07/13 07:52:37;;;;;;;;;;;;;;;;;;5054294;28;19924;-78
2023/07/13 07:55:03;;;;;;;;;;;;;;;;;;5071404;28;19925;-76
2023/07/13 07:57:29;;;;;;;;;;;;;;;;;;5053332;28;19928;-76
2023/07/13 07:59:55;;;;;;;;;;;;;;;;;;5053856;28;19924;-75
2023/07/13 08:02:21;;;;;;;;;;;;;;;;;;5066939;28;20018;-76
2023/07/13 08:04:47;;;;;;;;;;;;;;;;;;5053517;28;19921;-76
2023/07/13 08:07:13;;;;;;;;;;;;;;;;;;5054594;28;19920;-79
2023/07/13 08:09:39;;;;;;;;;;;;;;;;;;5075111;28;19972;-81
2023/07/13 08:12:05;;;;;;;;;;;;;;;;;;5083939;28;19927;-80
2023/07/13 08:14:31;;;;;;;;;;;;;;;;;;5089703;28;19927;-79
2023/07/13 08:16:57;;;;;;;;;;;;;;;;;;5089669;28;20774;-80
2023/07/13 08:19:31;;;;;;;;;;;;;;;;;;5083140;27;19949;-78
2023/07/13 08:21:57;;;;;;;;;;;;;;;;;;5066106;28;20736;-79
2023/07/13 08:24:23;;;;;;;;;;;;;;;;;;5066523;27;19928;-80
2023/07/13 08:26:49;;;;;;;;;;;;;;;;;;5048731;28;19924;-79
2023/07/13 08:29:15;;;;;;;;;;;;;;;;;;5052843;27;19925;-79
2023/07/13 08:31:41;;;;;;;;;;;;;;;;;;5085659;28;19924;-81
2023/07/13 08:34:07;;;;;;;;;;;;;;;;;;5042054;28;19924;-79
2023/07/13 08:36:33;;;;;;;;;;;;;;;;;;5064707;27;20583;-79
2023/07/13 08:38:59;;;;;;;;;;;;;;;;;;5034569;28;19924;-79
2023/07/13 08:41:25;;;;;;;;;;;;;;;;;;5079696;28;19924;-79
2023/07/13 08:43:51;;;;;;;;;;;;;;;;;;5048775;28;19963;-79
2023/07/13 08:46:17;;;;;;;;;;;;;;;;;;5042553;28;20274;-80
2023/07/13 08:48:43;;;;;;;;;;;;;;;;;;5074608;27;19925;-82
2023/07/13 08:51:09;;;;;;;;;;;;;;;;;;5039858;28;19926;-78
2023/07/13 08:53:35;;;;;;;;;;;;;;;;;;5072400;28;19972;-79
2023/07/13 08:56:01;;;;;;;;;;;;;;;;;;5098125;28;20084;-79
2023/07/13 08:58:28;;;;;;;;;;;;;;;;;;5065450;28;20369;-79
2023/07/13 09:00:54;;;;;;;;;;;;;;;;;;5065248;28;19924;-80
2023/07/13 09:03:20;;;;;;;;;;;;;;;;;;5065451;28;19935;-79
2023/07/13 09:05:46;;;;;;;;;;;;;;;;;;5065787;28;19925;-79
2023/07/13 09:08:12;;;;;;;;;;;;;;;;;;5064961;27;19928;-78
2023/07/13 09:10:38;;;;;;;;;;;;;;;;;;5081709;27;19928;-79
2023/07/13 09:13:04;;;;;;;;;;;;;;;;;;5064581;28;19980;-78
2023/07/13 09:15:33;;;;;;;;;;;;;;;;;;5063129;28;19924;-78
2023/07/13 09:17:59;;;;;;;;;;;;;;;;;;5076890;27;19928;-81
2023/07/13 09:20:26;;;;;;;;;;;;;;;;;;5066770;28;19929;-80
2023/07/13 09:22:52;;;;;;;;;;;;;;;;;;5065383;28;19924;-82
2023/07/13 09:25:18;;;;;;;;;;;;;;;;;;5065837;28;20000;-80
2023/07/13 09:27:44;;;;;;;;;;;;;;;;;;5065042;28;19934;-81
2023/07/13 09:30:10;;;;;;;;;;;;;;;;;;5056599;28;20072;-84
2023/07/13 09:32:35;;;;;;;;;;;;;;;;;;5051402;28;19928;-82
2023/07/13 09:35:03;;;;;;;;;;;;;;;;;;5019272;28;19929;-81
2023/07/13 09:37:32;;;;;;;;;;;;;;;;;;5056406;28;19983;-80
2023/07/13 09:39:58;;;;;;;;;;;;;;;;;;5061465;28;20016;-79
2023/07/13 09:42:24;;;;;;;;;;;;;;;;;;5055046;28;20004;-78
2023/07/13 09:44:50;;;;;;;;;;;;;;;;;;5060701;28;19928;-78
2023/07/13 09:47:16;;;;;;;;;;;;;;;;;;5042137;28;19925;-78
2023/07/13 09:49:43;;;;;;;;;;;;;;;;;;5051268;28;19929;-77
2023/07/13 09:52:09;;;;;;;;;;;;;;;;;;5051704;27;19978;-80
2023/07/13 09:54:35;;;;;;;;;;;;;;;;;;5074822;28;20365;-75
2023/07/13 09:57:01;;;;;;;;;;;;;;;;;;5060839;28;19932;-77
2023/07/13 09:59:27;;;;;;;;;;;;;;;;;;5070799;27;19936;-75
2023/07/13 10:01:53;;;;;;;;;;;;;;;;;;5072878;27;19928;-76
2023/07/13 10:04:19;;;;;;;;;;;;;;;;;;5033144;28;19936;-74
2023/07/13 10:06:45;;;;;;;;;;;;;;;;;;5051344;28;20035;-76
2023/07/13 10:09:12;;;;;;;;;;;;;;;;;;5033790;28;20036;-75
2023/07/13 10:11:38;;;;;;;;;;;;;;;;;;5032335;28;19939;-75
2023/07/13 10:14:04;;;;;;;;;;;;;;;;;;5038392;27;20006;-77
2023/07/13 10:16:32;;;;;;;;;;;;;;;;;;5009011;28;19936;-76
2023/07/13 10:19:00;;;;;;;;;;;;;;;;;;5023752;28;19930;-73
2023/07/13 10:21:28;;;;;;;;;;;;;;;;;;5068620;28;19931;-75
2023/07/13 10:23:54;;;;;;;;;;;;;;;;;;5038911;28;20436;-75
2023/07/13 10:26:20;;;;;;;;;;;;;;;;;;5034482;28;19928;-75
2023/07/13 10:28:47;;;;;;;;;;;;;;;;;;5050183;28;19976;-75
2023/07/13 10:31:13;;;;;;;;;;;;;;;;;;5051649;27;19975;-75
2023/07/13 10:33:39;;;;;;;;;;;;;;;;;;5017587;28;19932;-76
2023/07/13 10:36:06;;;;;;;;;;;;;;;;;;5061101;28;19978;-75
2023/07/13 10:38:32;;;;;;;;;;;;;;;;;;5048455;28;20614;-75
2023/07/13 10:40:58;;;;;;;;;;;;;;;;;;5062814;28;19936;-75
2023/07/13 10:43:24;;;;;;;;;;;;;;;;;;5048400;28;19929;-76
2023/07/13 10:45:50;;;;;;;;;;;;;;;;;;5071939;28;20516;-75
2023/07/13 10:48:16;;;;;;;;;;;;;;;;;;5020385;28;20289;-74
2023/07/13 10:50:42;;;;;;;;;;;;;;;;;;5044677;28;19928;-75
2023/07/13 10:53:08;;;;;;;;;;;;;;;;;;5067927;28;19936;-75
2023/07/13 10:55:35;;;;;;;;;;;;;;;;;;5055882;27;20032;-75
2023/07/13 10:58:01;;;;;;;;;;;;;;;;;;5046952;28;20445;-75
2023/07/13 11:00:27;;;;;;;;;;;;;;;;;;5081596;27;19932;-75
2023/07/13 11:02:53;;;;;;;;;;;;;;;;;;5071406;27;19926;-75
2023/07/13 11:05:19;;;;;;;;;;;;;;;;;;5066515;28;19928;-75
2023/07/13 11:07:45;;;;;;;;;;;;;;;;;;5022998;28;19932;-74
2023/07/13 11:10:11;;;;;;;;;;;;;;;;;;5083160;28;19924;-75
2023/07/13 11:12:37;;;;;;;;;;;;;;;;;;5049946;28;19946;-76
2023/07/13 11:15:06;;;;;;;;;;;;;;;;;;5022569;28;19983;-76
2023/07/13 11:17:32;;;;;;;;;;;;;;;;;;5068794;28;19963;-76
2023/07/13 11:19:58;;;;;;;;;;;;;;;;;;5049723;28;20490;-76
2023/07/13 11:22:24;;;;;;;;;;;;;;;;;;5007452;28;19929;-76
2023/07/13 11:24:50;;;;;;;;;;;;;;;;;;5050853;28;19924;-76
2023/07/13 11:27:16;;;;;;;;;;;;;;;;;;5048680;28;20011;-76
2023/07/13 11:29:42;;;;;;;;;;;;;;;;;;5033656;28;19934;-77
2023/07/13 11:32:09;;;;;;;;;;;;;;;;;;5033380;28;19924;-76
2023/07/13 11:34:35;;;;;;;;;;;;;;;;;;5030430;28;20619;-75
2023/07/13 11:37:01;;;;;;;;;;;;;;;;;;5037552;28;19978;-77
2023/07/13 11:39:27;;;;;;;;;;;;;;;;;;5033750;28;19925;-78
2023/07/13 11:41:53;;;;;;;;;;;;;;;;;;5058836;28;19929;-77
2023/07/13 11:44:19;;;;;;;;;;;;;;;;;;5062836;28;20322;-75
2023/07/13 11:46:45;;;;;;;;;;;;;;;;;;5076841;28;20444;-78
2023/07/13 11:49:11;;;;;;;;;;;;;;;;;;5049259;28;19931;-77
2023/07/13 11:51:37;;;;;;;;;;;;;;;;;;5049750;28;19931;-76
2023/07/13 11:54:03;;;;;;;;;;;;;;;;;;5033278;28;19928;-77
2023/07/13 11:56:29;;;;;;;;;;;;;;;;;;5049881;28;19931;-77
2023/07/13 11:58:55;;;;;;;;;;;;;;;;;;5032683;28;19925;-76
2023/07/13 12:01:21;;;;;;;;;;;;;;;;;;5055947;28;20172;-76
2023/07/13 12:03:47;;;;;;;;;;;;;;;;;;5049199;28;19931;-77
2023/07/13 12:06:14;;;;;;;;;;;;;;;;;;5027274;28;19925;-77
2023/07/13 12:08:40;;;;;;;;;;;;;;;;;;5076851;28;20023;-77
2023/07/13 12:11:06;;;;;;;;;;;;;;;;;;5036136;28;20065;-78
2023/07/13 12:13:32;;;;;;;;;;;;;;;;;;5032878;28;19936;-73
2023/07/13 12:15:58;;;;;;;;;;;;;;;;;;5047623;28;19932;-73
2023/07/13 12:18:24;;;;;;;;;;;;;;;;;;5032097;28;20060;-74
2023/07/13 12:20:49;;;;;;;;;;;;;;;;;;5049488;28;19988;-76
2023/07/13 12:23:15;;;;;;;;;;;;;;;;;;5029975;28;19933;-78
2023/07/13 12:25:43;;;;;;;;;;;;;;;;;;5049131;28;19936;-78
2023/07/13 12:28:09;;;;;;;;;;;;;;;;;;5017964;28;19932;-79
2023/07/13 12:30:35;;;;;;;;;;;;;;;;;;5063724;28;19925;-79
2023/07/13 12:33:01;;;;;;;;;;;;;;;;;;5063099;28;19929;-79
2023/07/13 12:35:29;;;;;;;;;;;;;;;;;;5044960;28;20293;-79
2023/07/13 12:37:55;;;;;;;;;;;;;;;;;;5043722;28;19929;-79
2023/07/13 12:40:24;;;;;;;;;;;;;;;;;;5026612;28;20381;-78
2023/07/13 12:42:50;;;;;;;;;;;;;;;;;;5043386;28;19974;-78
2023/07/13 12:45:16;;;;;;;;;;;;;;;;;;5043095;28;19933;-78
2023/07/13 12:47:42;;;;;;;;;;;;;;;;;;5042858;28;20425;-79
2023/07/13 12:50:08;;;;;;;;;;;;;;;;;;5043275;28;20597;-79
2023/07/13 12:52:34;;;;;;;;;;;;;;;;;;5053723;27;20323;-78
2023/07/13 12:55:01;;;;;;;;;;;;;;;;;;5027607;28;19995;-78
2023/07/13 12:57:27;;;;;;;;;;;;;;;;;;5029277;28;20420;-80
2023/07/13 12:59:53;;;;;;;;;;;;;;;;;;5044806;28;19950;-77
2023/07/13 13:02:22;;;;;;;;;;;;;;;;;;5061213;27;19928;-80
2023/07/13 13:04:48;;;;;;;;;;;;;;;;;;5033775;28;20393;-79
2023/07/13 13:07:14;;;;;;;;;;;;;;;;;;5046445;28;19925;-79
2023/07/13 13:09:40;;;;;;;;;;;;;;;;;;5052132;28;20374;-79
2023/07/13 13:12:06;;;;;;;;;;;;;;;;;;5066377;28;20620;-81
2023/07/13 13:14:32;;;;;;;;;;;;;;;;;;5066155;28;19972;-78
2023/07/13 13:16:58;;;;;;;;;;;;;;;;;;5056902;27;20592;-79
2023/07/13 13:19:24;;;;;;;;;;;;;;;;;;5064890;28;19993;-79
2023/07/13 13:21:52;;;;;;;;;;;;;;;;;;5055556;28;20381;-79
2023/07/13 13:24:19;;;;;;;;;;;;;;;;;;5033814;28;20277;-75
2023/07/13 13:26:45;;;;;;;;;;;;;;;;;;5074635;27;19939;-74
2023/07/13 13:29:13;;;;;;;;;;;;;;;;;;5066772;27;19925;-75
2023/07/13 13:31:39;;;;;;;;;;;;;;;;;;5048925;27;19970;-75
2023/07/13 13:34:05;;;;;;;;;;;;;;;;;;5055576;28;20333;-75
2023/07/13 13:36:31;;;;;;;;;;;;;;;;;;5035153;28;19928;-75
2023/07/13 13:38:57;;;;;;;;;;;;;;;;;;5048146;27;19925;-75
2023/07/13 13:41:23;;;;;;;;;;;;;;;;;;5061715;27;20033;-75
2023/07/13 13:43:49;;;;;;;;;;;;;;;;;;5067837;27;20548;-75
2023/07/13 13:46:15;;;;;;;;;;;;;;;;;;5057170;27;19958;-75
2023/07/13 13:48:41;;;;;;;;;;;;;;;;;;5033445;28;20464;-77
2023/07/13 13:51:07;;;;;;;;;;;;;;;;;;5055002;28;19926;-79
2023/07/13 13:53:33;;;;;;;;;;;;;;;;;;5045522;27;19939;-75
2023/07/13 13:55:59;;;;;;;;;;;;;;;;;;5051426;28;20297;-77
2023/07/13 13:58:25;;;;;;;;;;;;;;;;;;5068155;28;20060;-79
2023/07/13 14:00:52;;;;;;;;;;;;;;;;;;5034718;28;20007;-80
2023/07/13 14:03:18;;;;;;;;;;;;;;;;;;5035267;28;19930;-80
2023/07/13 14:05:44;;;;;;;;;;;;;;;;;;5055644;28;20386;-80
2023/07/13 14:08:10;;;;;;;;;;;;;;;;;;5051006;28;20007;-79
2023/07/13 14:10:36;;;;;;;;;;;;;;;;;;5038002;28;19925;-79
2023/07/13 14:13:02;;;;;;;;;;;;;;;;;;5035561;28;19924;-79
2023/07/13 14:15:28;;;;;;;;;;;;;;;;;;5051308;28;19930;-79
2023/07/13 14:17:54;;;;;;;;;;;;;;;;;;5050217;28;20296;-81
2023/07/13 14:20:20;;;;;;;;;;;;;;;;;;5034550;28;20343;-80
2023/07/13 14:22:46;;;;;;;;;;;;;;;;;;5022677;28;20015;-79
2023/07/13 14:25:12;;;;;;;;;;;;;;;;;;5056448;28;19925;-79
2023/07/13 14:27:38;;;;;;;;;;;;;;;;;;5051716;28;19924;-80
2023/07/13 14:30:04;;;;;;;;;;;;;;;;;;5035565;28;20381;-79
2023/07/13 14:32:30;;;;;;;;;;;;;;;;;;5051566;28;19932;-79
2023/07/13 14:34:57;;;;;;;;;;;;;;;;;;5034787;28;19924;-79
2023/07/13 14:37:23;;;;;;;;;;;;;;;;;;5051487;28;19957;-79
2023/07/13 14:39:49;;;;;;;;;;;;;;;;;;5051877;28;19928;-80
2023/07/13 14:42:15;;;;;;;;;;;;;;;;;;5050999;28;19932;-81
2023/07/13 14:44:41;;;;;;;;;;;;;;;;;;5061848;27;19929;-79
2023/07/13 14:47:07;;;;;;;;;;;;;;;;;;5059948;28;19928;-80
2023/07/13 14:49:33;;;;;;;;;;;;;;;;;;5034074;28;19932;-79
2023/07/13 14:51:59;;;;;;;;;;;;;;;;;;5051354;28;20001;-80
2023/07/13 14:54:25;;;;;;;;;;;;;;;;;;5041791;28;20331;-79
2023/07/13 14:56:51;;;;;;;;;;;;;;;;;;5080928;28;20273;-80
2023/07/13 14:59:18;;;;;;;;;;;;;;;;;;5034688;28;19928;-82
2023/07/13 15:01:44;;;;;;;;;;;;;;;;;;5051091;28;19942;-79
2023/07/13 15:04:10;;;;;;;;;;;;;;;;;;5014547;28;20016;-79
2023/07/13 15:06:36;;;;;;;;;;;;;;;;;;5066831;28;19925;-78
2023/07/13 15:09:03;;;;;;;;;;;;;;;;;;5050860;28;19929;-79
2023/07/13 15:11:29;;;;;;;;;;;;;;;;;;5049804;28;19929;-79
2023/07/13 15:13:55;;;;;;;;;;;;;;;;;;5051414;28;19930;-80
2023/07/13 15:16:21;;;;;;;;;;;;;;;;;;5050785;28;19962;-80
2023/07/13 15:18:47;;;;;;;;;;;;;;;;;;5033635;28;19934;-80
2023/07/13 15:21:16;;;;;;;;;;;;;;;;;;5034810;28;19933;-80
2023/07/13 15:23:42;;;;;;;;;;;;;;;;;;5033598;28;20192;-80
2023/07/13 15:26:08;;;;;;;;;;;;;;;;;;5033939;28;19967;-80
2023/07/13 15:28:34;;;;;;;;;;;;;;;;;;5033897;28;19933;-80
2023/07/13 15:31:00;;;;;;;;;;;;;;;;;;5050603;28;19976;-81
2023/07/13 15:33:26;;;;;;;;;;;;;;;;;;5032902;28;19929;-81
2023/07/13 15:35:53;;;;;;;;;;;;;;;;;;5073310;28;19932;-81
2023/07/13 15:38:20;;;;;;;;;;;;;;;;;;5037052;28;19939;-80
2023/07/13 15:40:46;;;;;;;;;;;;;;;;;;5032981;28;20011;-80
2023/07/13 15:43:12;;;;;;;;;;;;;;;;;;5050448;28;20387;-81
2023/07/13 15:45:38;;;;;;;;;;;;;;;;;;5050181;28;20046;-81
2023/07/13 15:48:04;;;;;;;;;;;;;;;;;;5032758;28;19925;-81
2023/07/13 15:50:32;;;;;;;;;;;;;;;;;;5049566;28;20396;-82
2023/07/13 15:52:58;;;;;;;;;;;;;;;;;;5042942;27;19936;-81
2023/07/13 15:55:24;;;;;;;;;;;;;;;;;;5043201;28;19928;-82
2023/07/13 15:57:49;;;;;;;;;;;;;;;;;;5076704;28;19935;-81
2023/07/13 16:00:15;;;;;;;;;;;;;;;;;;5072043;28;20016;-79
2023/07/13 16:02:41;;;;;;;;;;;;;;;;;;5032481;28;19928;-79
2023/07/13 16:05:07;;;;;;;;;;;;;;;;;;5050175;28;19929;-76
2023/07/13 16:07:33;;;;;;;;;;;;;;;;;;5033082;28;19929;-76
2023/07/13 16:09:59;;;;;;;;;;;;;;;;;;5049826;28;20413;-79
2023/07/13 16:12:25;;;;;;;;;;;;;;;;;;5041153;28;20288;-77
2023/07/13 16:14:51;;;;;;;;;;;;;;;;;;5064541;28;19928;-75
2023/07/13 16:17:17;;;;;;;;;;;;;;;;;;5049866;28;19928;-78
2023/07/13 16:19:43;;;;;;;;;;;;;;;;;;5061862;27;19943;-79
2023/07/13 16:22:09;;;;;;;;;;;;;;;;;;5063969;28;20362;-75
2023/07/13 16:24:35;;;;;;;;;;;;;;;;;;5049563;28;19954;-74
2023/07/13 16:27:03;;;;;;;;;;;;;;;;;;5049616;28;19928;-74
2023/07/13 16:29:30;;;;;;;;;;;;;;;;;;5049320;28;20004;-74
2023/07/13 16:31:56;;;;;;;;;;;;;;;;;;5044169;28;20293;-75
2023/07/13 16:34:24;;;;;;;;;;;;;;;;;;5030176;28;19943;-74
2023/07/13 16:36:50;;;;;;;;;;;;;;;;;;5075065;28;19925;-74